createdAt,value
2023-03-04T00:00:45.761Z,29.57
2023-03-04T00:03:15.599Z,29.17
2023-03-04T00:05:43.992Z,27.90
2023-03-04T00:08:12.249Z,28.37
2023-03-04T00:10:40.579Z,26.77
2023-03-04T00:13:08.795Z,27.67
2023-03-04T00:15:38.411Z,29.00
2023-03-04T00:18:06.897Z,29.63
2023-03-04T00:20:35.179Z,27.13
2023-03-04T00:23:03.527Z,26.63
2023-03-04T00:25:31.760Z,28.23
2023-03-04T00:27:59.978Z,26.43
2023-03-04T00:30:28.318Z,27.13
2023-03-04T00:32:58.031Z,29.20
2023-03-04T00:35:26.292Z,28.50
2023-03-04T00:37:54.562Z,28.60
2023-03-04T00:40:22.798Z,27.53
2023-03-04T00:42:51.053Z,26.93
2023-03-04T00:45:19.490Z,27.97
2023-03-04T00:47:47.723Z,28.27
2023-03-04T00:50:17.602Z,28.77
2023-03-04T00:52:45.825Z,27.43
2023-03-04T00:55:14.120Z,28.70
2023-03-04T00:57:42.337Z,29.57
2023-03-04T01:00:11.815Z,31.73
2023-03-04T01:02:40.298Z,29.37
2023-03-04T01:05:09.527Z,31.70
2023-03-04T01:07:39.222Z,31.17
2023-03-04T01:10:08.479Z,32.57
2023-03-04T01:12:36.705Z,31.67
2023-03-04T01:15:05.370Z,31.93
2023-03-04T01:17:33.642Z,30.63
2023-03-04T01:20:01.956Z,31.83
2023-03-04T01:22:30.213Z,31.07
2023-03-04T01:24:59.858Z,29.03
2023-03-04T01:27:28.127Z,31.03
2023-03-04T01:29:56.387Z,28.90
2023-03-04T01:32:24.738Z,28.60
2023-03-04T01:34:53.022Z,31.53
2023-03-04T01:37:21.253Z,29.87
2023-03-04T01:39:49.651Z,29.70
2023-03-04T01:42:20.964Z,26.90
2023-03-04T01:44:49.337Z,26.83
2023-03-04T01:47:17.617Z,29.77
2023-03-04T01:49:45.841Z,27.57
2023-03-04T01:52:14.454Z,28.53
2023-03-04T01:54:42.696Z,26.07
2023-03-04T01:57:17.400Z,27.80
2023-03-04T01:59:47.026Z,27.33
2023-03-04T02:02:15.311Z,27.53
2023-03-04T02:04:43.576Z,24.53
2023-03-04T02:07:11.828Z,23.10
2023-03-04T02:09:40.124Z,24.27
2023-03-04T02:12:08.440Z,24.43
2023-03-04T02:14:36.687Z,24.10
2023-03-04T02:17:10.524Z,24.73
2023-03-04T02:19:42.981Z,24.70
2023-03-04T02:22:11.270Z,23.83
2023-03-04T02:24:42.448Z,23.60
2023-03-04T02:27:12.123Z,25.20
2023-03-04T02:29:40.358Z,24.07
2023-03-04T02:32:11.390Z,25.50
2023-03-04T02:34:47.111Z,24.67
2023-03-04T02:37:15.454Z,24.80
2023-03-04T02:39:44.536Z,24.60
2023-03-04T02:42:14.208Z,24.57
2023-03-04T02:44:43.585Z,24.97
2023-03-04T02:47:12.383Z,25.10
2023-03-04T02:49:41.156Z,24.13
2023-03-04T02:52:10.464Z,25.97
2023-03-04T02:54:39.112Z,23.63
2023-03-04T02:57:08.233Z,25.43
2023-03-04T02:59:38.203Z,25.13
2023-03-04T03:02:06.647Z,24.80
2023-03-04T03:04:34.942Z,23.90
2023-03-04T03:07:03.208Z,25.33
2023-03-04T03:09:31.544Z,25.60
2023-03-04T03:11:59.820Z,22.53
2023-03-04T03:14:28.092Z,22.13
2023-03-04T03:16:57.770Z,24.07
2023-03-04T03:19:26.018Z,24.30
2023-03-04T03:21:54.222Z,23.30
2023-03-04T03:24:22.581Z,24.27
2023-03-04T03:26:50.804Z,22.03
2023-03-04T03:29:19.058Z,23.97
2023-03-04T03:31:47.486Z,25.43
2023-03-04T03:34:17.163Z,23.73
2023-03-04T03:36:45.413Z,23.73
2023-03-04T03:39:15.621Z,23.50
2023-03-04T03:41:44.046Z,25.20
2023-03-04T03:44:12.289Z,24.23
2023-03-04T03:46:40.579Z,23.90
2023-03-04T03:49:08.824Z,23.07
2023-03-04T03:51:38.522Z,24.10
2023-03-04T03:54:06.817Z,21.57
2023-03-04T03:56:35.035Z,22.07
2023-03-04T03:59:03.325Z,23.00
2023-03-04T04:01:31.588Z,23.00
2023-03-04T04:03:59.824Z,22.43
2023-03-04T04:06:28.106Z,23.80
2023-03-04T04:08:57.986Z,25.77
2023-03-04T04:11:26.314Z,26.63
2023-03-04T04:13:54.573Z,25.03
2023-03-04T04:16:22.870Z,25.60
2023-03-04T04:18:51.135Z,25.87
2023-03-04T04:21:19.392Z,26.20
2023-03-04T04:23:47.656Z,27.10
2023-03-04T04:26:17.299Z,25.93
2023-03-04T04:28:45.606Z,27.30
2023-03-04T04:31:13.882Z,27.27
2023-03-04T04:33:42.140Z,29.10
2023-03-04T04:36:11.619Z,28.20
2023-03-04T04:38:39.846Z,28.07
2023-03-04T04:41:08.089Z,25.27
2023-03-04T04:43:37.715Z,25.87
2023-03-04T04:46:06.352Z,26.03
2023-03-04T04:48:34.710Z,25.93
2023-03-04T04:51:02.981Z,25.43
2023-03-04T04:53:31.206Z,27.40
2023-03-04T04:55:59.447Z,25.33
2023-03-04T04:58:27.704Z,24.57
2023-03-04T05:00:59.357Z,24.90
2023-03-04T05:03:27.697Z,25.67
2023-03-04T05:05:56.062Z,24.87
2023-03-04T05:08:24.480Z,26.13
2023-03-04T05:10:53.049Z,26.17
2023-03-04T05:13:21.279Z,26.87
2023-03-04T05:15:49.552Z,25.40
2023-03-04T05:18:19.194Z,27.17
2023-03-04T05:20:47.419Z,25.87
2023-03-04T05:23:15.641Z,26.47
2023-03-04T05:25:43.923Z,27.30
2023-03-04T05:28:12.560Z,25.90
2023-03-04T05:30:40.862Z,26.27
2023-03-04T05:33:09.597Z,26.57
2023-03-04T05:35:39.524Z,26.13
2023-03-04T05:38:08.622Z,27.60
2023-03-04T05:40:37.133Z,27.00
2023-03-04T05:43:05.401Z,25.97
2023-03-04T05:45:33.688Z,26.53
2023-03-04T05:48:03.134Z,27.53
2023-03-04T05:50:31.619Z,27.67
2023-03-04T05:53:01.274Z,28.47
2023-03-04T05:55:30.153Z,28.87
2023-03-04T05:57:58.529Z,29.27
2023-03-04T06:00:27.043Z,28.80
2023-03-04T06:02:55.279Z,28.03
2023-03-04T06:05:23.732Z,29.07
2023-03-04T06:07:51.961Z,27.60
2023-03-04T06:10:24.333Z,27.80
2023-03-04T06:12:52.669Z,27.83
2023-03-04T06:15:21.052Z,28.37
2023-03-04T06:17:49.346Z,27.17
2023-03-04T06:20:17.563Z,28.63
2023-03-04T06:22:45.842Z,27.37
2023-03-04T06:25:14.160Z,25.60
2023-03-04T06:27:43.954Z,26.43
2023-03-04T06:30:13.257Z,27.70
2023-03-04T06:32:44.574Z,27.43
2023-03-04T06:35:12.830Z,28.87
2023-03-04T06:37:41.149Z,29.67
2023-03-04T06:40:10.976Z,26.80
2023-03-04T06:42:40.091Z,27.57
2023-03-04T06:45:10.820Z,28.97
2023-03-04T06:47:39.089Z,27.27
2023-03-04T06:50:07.790Z,25.87
2023-03-04T06:52:36.120Z,27.57
2023-03-04T06:55:04.529Z,26.23
2023-03-04T06:57:32.804Z,27.53
2023-03-04T07:00:01.294Z,25.47
2023-03-04T07:02:30.952Z,26.43
2023-03-04T07:04:59.232Z,24.97
2023-03-04T07:07:27.467Z,25.47
2023-03-04T07:09:55.767Z,24.73
2023-03-04T07:12:24.061Z,26.13
2023-03-04T07:14:52.313Z,24.23
2023-03-04T07:17:35.828Z,25.73
2023-03-04T07:20:06.744Z,25.37
2023-03-04T07:22:34.965Z,24.00
2023-03-04T07:25:03.284Z,24.10
2023-03-04T07:27:31.532Z,23.70
2023-03-04T07:29:59.833Z,22.83
2023-03-04T07:32:28.172Z,24.03
2023-03-04T07:34:56.490Z,23.83
2023-03-04T07:37:26.173Z,25.07
2023-03-04T07:39:54.410Z,25.17
2023-03-04T07:42:22.737Z,24.43
2023-03-04T07:44:51.005Z,23.13
2023-03-04T07:47:19.730Z,23.03
2023-03-04T07:49:48.025Z,24.63
2023-03-04T07:52:16.250Z,22.20
2023-03-04T07:54:45.915Z,23.27
2023-03-04T07:57:14.220Z,21.93
2023-03-04T07:59:42.449Z,20.27
2023-03-04T08:02:11.439Z,18.00
2023-03-04T08:04:39.867Z,18.30
2023-03-04T08:07:08.178Z,19.10
2023-03-04T08:09:36.433Z,20.23
2023-03-04T08:12:06.363Z,20.73
2023-03-04T08:14:35.109Z,19.63
2023-03-04T08:17:03.346Z,18.43
2023-03-04T08:19:31.740Z,17.23
2023-03-04T08:21:59.966Z,18.40
2023-03-04T08:24:28.262Z,16.67
2023-03-04T08:26:56.528Z,17.70
2023-03-04T08:29:26.205Z,18.10
2023-03-04T08:31:55.640Z,16.83
2023-03-04T08:34:25.111Z,16.97
2023-03-04T08:36:53.365Z,16.13
2023-03-04T08:39:21.784Z,18.00
2023-03-04T08:41:50.179Z,17.07
2023-03-04T08:44:18.503Z,18.03
2023-03-04T08:46:48.355Z,18.03
2023-03-04T08:49:16.608Z,18.70
2023-03-04T08:51:45.371Z,17.53
2023-03-04T08:54:13.832Z,16.77
2023-03-04T08:56:43.039Z,18.10
2023-03-04T08:59:11.316Z,17.53
2023-03-04T09:01:39.612Z,17.77
2023-03-04T09:04:09.303Z,18.97
2023-03-04T09:06:37.583Z,20.10
2023-03-04T09:09:06.188Z,19.53
2023-03-04T09:11:34.489Z,19.17
2023-03-04T09:14:02.805Z,20.40
2023-03-04T09:16:31.185Z,20.40
2023-03-04T09:18:59.530Z,17.23
2023-03-04T09:21:29.308Z,18.50
2023-03-04T09:23:57.655Z,17.53
2023-03-04T09:26:27.273Z,18.90
2023-03-04T09:28:56.360Z,20.07
2023-03-04T09:31:24.765Z,19.70
2023-03-04T09:33:53.584Z,21.67
2023-03-04T09:36:21.960Z,19.50
2023-03-04T09:38:51.850Z,19.90
2023-03-04T09:41:21.547Z,20.67
2023-03-04T09:43:50.165Z,20.97
2023-03-04T09:46:20.955Z,20.43
2023-03-04T09:48:50.340Z,20.57
2023-03-04T09:51:23.699Z,20.97
2023-03-04T09:54:07.866Z,20.00
2023-03-04T09:56:36.627Z,19.90
2023-03-04T09:59:10.643Z,18.57
2023-03-04T10:01:41.139Z,17.97
2023-03-04T10:04:14.196Z,20.13
2023-03-04T10:06:42.736Z,18.57
2023-03-04T10:09:15.257Z,19.33
2023-03-04T10:11:45.562Z,19.43
2023-03-04T10:14:24.745Z,19.03
2023-03-04T10:16:54.241Z,19.87
2023-03-04T10:19:27.217Z,18.97
2023-03-04T10:21:55.578Z,20.00
2023-03-04T10:24:28.773Z,20.73
2023-03-04T10:27:01.692Z,20.57
2023-03-04T10:29:30.384Z,19.70
2023-03-04T10:31:58.874Z,19.00
2023-03-04T10:34:27.370Z,18.97
2023-03-04T10:36:58.078Z,18.80
2023-03-04T10:39:28.955Z,18.97
2023-03-04T10:41:59.486Z,21.80
2023-03-04T10:44:28.009Z,19.70
2023-03-04T10:46:57.304Z,20.03
2023-03-04T10:49:26.075Z,20.20
2023-03-04T10:51:57.610Z,18.87
2023-03-04T10:54:28.680Z,20.47
2023-03-04T10:57:03.789Z,21.47
2023-03-04T10:59:53.572Z,24.10
2023-03-04T11:02:24.630Z,24.23
2023-03-04T11:04:54.899Z,27.27
2023-03-04T11:07:23.888Z,27.83
2023-03-04T11:09:57.311Z,27.43
2023-03-04T11:12:34.301Z,27.17
2023-03-04T11:15:02.974Z,27.67
2023-03-04T11:17:40.685Z,28.13
2023-03-04T11:20:15.369Z,28.07
2023-03-04T11:22:43.733Z,27.37
2023-03-04T11:25:21.811Z,27.53
2023-03-04T11:27:50.784Z,27.60
2023-03-04T11:30:27.104Z,26.97
2023-03-04T11:32:56.439Z,31.33
2023-03-04T11:35:26.832Z,28.53
2023-03-04T11:37:58.803Z,29.23
2023-03-04T11:40:31.485Z,29.30
2023-03-04T11:43:02.821Z,30.50
2023-03-04T11:45:36.972Z,39.07
2023-03-04T11:48:08.864Z,33.60
2023-03-04T11:50:45.709Z,30.77
2023-03-04T11:53:24.400Z,30.80
2023-03-04T11:55:58.736Z,30.70
2023-03-04T11:58:43.718Z,35.03
2023-03-04T12:01:13.507Z,31.53
2023-03-04T12:04:16.489Z,30.10
2023-03-04T12:06:50.636Z,28.10
2023-03-04T12:09:41.307Z,31.33
2023-03-04T12:12:24.863Z,27.87
2023-03-04T12:14:54.627Z,29.40
2023-03-04T12:17:30.622Z,27.40
2023-03-04T12:20:10.814Z,31.93
2023-03-04T12:22:43.265Z,26.47
2023-03-04T12:25:21.313Z,26.07
2023-03-04T12:27:56.946Z,31.87
2023-03-04T12:30:40.373Z,30.93
2023-03-04T12:33:13.871Z,25.90
2023-03-04T12:35:43.610Z,28.13
2023-03-04T12:38:28.125Z,27.40
2023-03-04T12:40:58.852Z,26.53
2023-03-04T12:43:48.638Z,24.57
2023-03-04T12:46:25.302Z,29.53
2023-03-04T12:49:00.889Z,23.63
2023-03-04T12:51:32.554Z,24.03
2023-03-04T12:54:09.449Z,25.37
2023-03-04T12:56:40.377Z,23.73
2023-03-04T12:59:14.052Z,23.93
2023-03-04T13:01:44.089Z,24.50
2023-03-04T13:04:15.715Z,25.13
2023-03-04T13:06:46.466Z,26.50
2023-03-04T13:09:19.261Z,23.03
2023-03-04T13:12:03.408Z,22.13
2023-03-04T13:14:34.629Z,22.67
2023-03-04T13:17:04.477Z,22.23
2023-03-04T13:19:47.442Z,23.10
2023-03-04T13:22:49.669Z,23.13
2023-03-04T13:25:32.618Z,22.40
2023-03-04T13:28:30.083Z,22.43
2023-03-04T13:31:24.430Z,21.77
2023-03-04T13:34:00.364Z,19.70
2023-03-04T13:36:47.860Z,19.00
2023-03-04T13:39:34.683Z,18.80
2023-03-04T13:42:02.987Z,18.80
2023-03-04T13:45:01.997Z,16.27
2023-03-04T13:47:42.668Z,18.87
2023-03-04T13:50:37.751Z,17.57
2023-03-04T13:53:30.695Z,18.40
2023-03-04T13:56:23.078Z,19.03
2023-03-04T13:58:52.310Z,17.90
2023-03-04T14:01:28.569Z,19.93
2023-03-04T14:03:58.340Z,17.67
2023-03-04T14:06:27.255Z,18.33
2023-03-04T14:08:55.685Z,20.30
2023-03-04T14:11:29.903Z,20.13
2023-03-04T14:13:58.648Z,19.23
2023-03-04T14:16:28.770Z,20.37
2023-03-04T14:19:02.796Z,18.33
2023-03-04T14:21:31.169Z,20.07
2023-03-04T14:24:07.844Z,20.17
2023-03-04T14:26:36.151Z,19.70
2023-03-04T14:29:04.579Z,19.00
2023-03-04T14:31:35.643Z,19.40
2023-03-04T14:34:05.383Z,18.63
2023-03-04T14:36:34.275Z,20.70
2023-03-04T14:39:02.964Z,20.53
2023-03-04T14:41:33.063Z,21.00
2023-03-04T14:44:05.078Z,20.73
2023-03-04T14:46:36.050Z,20.07
2023-03-04T14:49:05.734Z,20.67
2023-03-04T14:51:39.009Z,20.70
2023-03-04T14:54:07.369Z,20.27
2023-03-04T14:56:50.403Z,20.03
2023-03-04T14:59:18.729Z,19.97
2023-03-04T15:01:47.361Z,19.80
2023-03-04T15:04:17.097Z,21.17
2023-03-04T15:06:50.384Z,19.47
2023-03-04T15:09:20.704Z,19.53
2023-03-04T15:11:49.911Z,19.20
2023-03-04T15:14:46.667Z,18.27
2023-03-04T15:17:37.603Z,18.70
2023-03-04T15:20:25.870Z,18.90
2023-03-04T15:23:14.940Z,19.03
2023-03-04T15:25:43.236Z,19.67
2023-03-04T15:28:16.789Z,18.17
2023-03-04T15:30:45.164Z,19.20
2023-03-04T15:33:13.516Z,20.00
2023-03-04T15:35:43.984Z,19.13
2023-03-04T15:38:13.529Z,19.10
2023-03-04T15:40:43.294Z,19.53
2023-03-04T15:43:13.378Z,19.70
2023-03-04T15:45:41.603Z,20.27
2023-03-04T15:48:11.557Z,19.43
2023-03-04T15:50:40.793Z,20.03
2023-03-04T15:53:13.583Z,19.87
2023-03-04T15:55:41.844Z,20.80
2023-03-04T15:58:11.150Z,19.70
2023-03-04T16:00:39.430Z,18.93
2023-03-04T16:03:07.657Z,19.53
2023-03-04T16:05:36.564Z,18.33
2023-03-04T16:08:04.900Z,18.43
2023-03-04T16:10:34.554Z,18.97
2023-03-04T16:13:02.874Z,18.87
2023-03-04T16:15:31.604Z,19.30
2023-03-04T16:18:00.073Z,18.47
2023-03-04T16:20:29.991Z,20.20
2023-03-04T16:22:59.542Z,18.83
2023-03-04T16:25:27.806Z,19.83
2023-03-04T16:27:59.082Z,20.67
2023-03-04T16:30:27.760Z,21.17
2023-03-04T16:35:38.246Z,20.13
2023-03-04T16:38:07.316Z,21.10
2023-03-04T16:40:35.583Z,21.00
2023-03-04T16:43:05.211Z,20.67
2023-03-04T16:45:36.235Z,19.53
2023-03-04T16:48:04.689Z,21.20
2023-03-04T16:50:33.014Z,21.93
2023-03-04T16:53:01.246Z,20.90
2023-03-04T16:55:29.992Z,20.63
2023-03-04T16:57:59.113Z,20.33
2023-03-04T17:00:29.194Z,21.27
2023-03-04T17:02:58.522Z,19.97
2023-03-04T17:05:27.762Z,20.33
2023-03-04T17:07:56.070Z,21.57
2023-03-04T17:10:24.330Z,20.10
2023-03-04T17:12:52.628Z,20.17
2023-03-04T17:15:20.979Z,20.17
2023-03-04T17:17:52.355Z,20.70
2023-03-04T17:20:20.753Z,19.37
2023-03-04T17:22:49.144Z,20.27
2023-03-04T17:25:17.478Z,21.03
2023-03-04T17:28:00.541Z,22.10
2023-03-04T17:30:28.783Z,21.33
2023-03-04T17:32:58.408Z,20.60
2023-03-04T17:35:27.022Z,20.00
2023-03-04T17:37:55.323Z,18.60
2023-03-04T17:40:23.569Z,21.33
2023-03-04T17:42:51.813Z,21.20
2023-03-04T17:45:20.196Z,20.43
2023-03-04T17:47:48.446Z,21.70
2023-03-04T17:50:18.513Z,22.07
2023-03-04T17:52:46.728Z,21.57
2023-03-04T17:55:14.991Z,23.97
2023-03-04T17:57:43.244Z,23.67
2023-03-04T18:00:12.724Z,23.63
2023-03-04T18:02:41.116Z,23.83
2023-03-04T18:05:11.381Z,23.57
2023-03-04T18:07:41.046Z,21.30
2023-03-04T18:10:10.370Z,20.43
2023-03-04T18:12:38.604Z,20.53
2023-03-04T18:15:07.943Z,21.07
2023-03-04T18:17:36.166Z,21.13
2023-03-04T18:20:04.673Z,20.87
2023-03-04T18:22:32.912Z,21.90
2023-03-04T18:25:02.532Z,20.33
2023-03-04T18:27:30.833Z,21.70
2023-03-04T18:29:59.278Z,21.40
2023-03-04T18:32:28.375Z,20.97
2023-03-04T18:34:56.735Z,20.93
2023-03-04T18:37:24.966Z,21.77
2023-03-04T18:39:53.248Z,20.43
2023-03-04T18:42:22.970Z,22.17
2023-03-04T18:44:51.247Z,21.30
2023-03-04T18:47:19.566Z,21.93
2023-03-04T18:49:47.908Z,21.90
2023-03-04T18:52:16.231Z,21.60
2023-03-04T18:54:44.552Z,22.43
2023-03-04T18:57:13.753Z,21.57
2023-03-04T18:59:44.515Z,24.20
2023-03-04T19:02:17.005Z,23.27
2023-03-04T19:04:45.334Z,24.27
2023-03-04T19:07:13.589Z,22.40
2023-03-04T19:09:42.024Z,21.97
2023-03-04T19:12:10.350Z,21.03
2023-03-04T19:14:38.673Z,21.70
2023-03-04T19:17:08.401Z,20.00
2023-03-04T19:19:36.705Z,19.67
2023-03-04T19:22:06.954Z,21.80
2023-03-04T19:24:35.353Z,21.60
2023-03-04T19:27:05.496Z,21.20
2023-03-04T19:29:33.854Z,20.50
2023-03-04T19:32:02.309Z,20.20
2023-03-04T19:34:32.073Z,21.13
2023-03-04T19:37:00.372Z,19.47
2023-03-04T19:39:28.712Z,19.70
2023-03-04T19:41:57.068Z,18.67
2023-03-04T19:44:25.419Z,17.17
2023-03-04T19:46:53.814Z,18.53
2023-03-04T19:49:22.178Z,17.47
2023-03-04T19:51:51.905Z,16.83
2023-03-04T19:54:20.262Z,16.40
2023-03-04T19:56:48.680Z,16.63
2023-03-04T19:59:17.030Z,17.53
2023-03-04T20:01:45.672Z,17.27
2023-03-04T20:04:14.864Z,16.87
2023-03-04T20:06:44.127Z,15.07
2023-03-04T20:09:14.178Z,16.73
2023-03-04T20:11:56.731Z,16.10
2023-03-04T20:14:25.905Z,15.37
2023-03-04T20:16:54.271Z,14.67
2023-03-04T20:19:22.787Z,14.10
2023-03-04T20:21:51.077Z,14.50
2023-03-04T20:24:23.298Z,13.13
2023-03-04T20:26:51.862Z,13.40
2023-03-04T20:29:20.276Z,12.47
2023-03-04T20:31:49.230Z,13.63
2023-03-04T20:34:17.773Z,13.17
2023-03-04T20:36:47.432Z,13.43
2023-03-04T20:39:28.046Z,12.27
2023-03-04T20:41:58.752Z,13.73
2023-03-04T20:44:27.218Z,12.80
2023-03-04T20:46:55.555Z,12.80
2023-03-04T20:49:24.628Z,12.53
2023-03-04T20:51:53.010Z,12.27
2023-03-04T20:54:21.336Z,13.00
2023-03-04T20:56:49.601Z,12.00
2023-03-04T20:59:19.288Z,11.67
2023-03-04T21:01:48.074Z,11.57
2023-03-04T21:04:16.622Z,12.67
2023-03-04T21:06:45.212Z,11.80
2023-03-04T21:09:14.569Z,12.77
2023-03-04T21:11:42.919Z,13.90
2023-03-04T21:14:13.653Z,13.57
2023-03-04T21:16:43.481Z,14.00
2023-03-04T21:19:15.333Z,13.40
2023-03-04T21:21:43.653Z,14.23
2023-03-04T21:24:12.662Z,12.37
2023-03-04T21:26:43.100Z,8.03
2023-03-04T21:29:11.332Z,7.67
2023-03-04T21:31:42.484Z,5.90
2023-03-04T21:34:13.863Z,6.53
2023-03-04T21:36:42.125Z,6.73
2023-03-04T21:39:12.581Z,5.80
2023-03-04T21:41:40.821Z,3.90
2023-03-04T21:44:14.494Z,3.80
2023-03-04T21:46:52.704Z,4.07
2023-03-04T21:49:20.991Z,4.50
2023-03-04T21:51:49.208Z,4.07
2023-03-04T21:54:17.443Z,4.43
2023-03-04T21:56:45.712Z,4.70
2023-03-04T21:59:15.130Z,4.93
2023-03-04T22:01:44.603Z,4.90
2023-03-04T22:04:14.242Z,5.43
2023-03-04T22:06:42.474Z,4.53
2023-03-04T22:09:12.244Z,5.07
2023-03-04T22:11:40.485Z,4.23
2023-03-04T22:14:08.786Z,5.10
2023-03-04T22:16:48.943Z,5.23
2023-03-04T22:19:23.995Z,5.20
2023-03-04T22:21:52.534Z,4.90
2023-03-04T22:24:20.959Z,6.20
2023-03-04T22:26:49.281Z,6.10
2023-03-04T22:29:17.539Z,6.70
2023-03-04T22:31:46.116Z,6.53
2023-03-04T22:34:15.468Z,7.53
2023-03-04T22:36:45.987Z,7.10
2023-03-04T22:39:15.237Z,7.60
2023-03-04T22:41:43.499Z,9.17
2023-03-04T22:44:11.799Z,9.13
2023-03-04T22:46:40.072Z,8.70
2023-03-04T22:49:09.656Z,8.47
2023-03-04T22:51:38.067Z,8.03
2023-03-04T22:54:07.733Z,8.67
2023-03-04T22:56:36.551Z,8.50
2023-03-04T22:59:04.809Z,9.07
2023-03-04T23:01:33.145Z,8.97
2023-03-04T23:04:01.435Z,9.90
2023-03-04T23:06:30.501Z,9.57
2023-03-04T23:08:59.171Z,10.60
2023-03-04T23:11:29.764Z,10.87
2023-03-04T23:13:58.222Z,10.50
2023-03-04T23:16:27.885Z,10.67
2023-03-04T23:18:58.173Z,10.67
2023-03-04T23:21:28.244Z,10.50
2023-03-04T23:23:56.636Z,8.57
2023-03-04T23:26:25.694Z,7.80
2023-03-04T23:28:56.887Z,7.93
2023-03-04T23:31:25.820Z,8.77
2023-03-04T23:33:57.277Z,8.67
2023-03-04T23:36:26.413Z,7.67
2023-03-04T23:38:54.692Z,9.23
2023-03-04T23:41:23.926Z,8.20
2023-03-04T23:43:55.017Z,8.20
2023-03-04T23:46:23.453Z,8.47
2023-03-04T23:48:51.952Z,7.57
2023-03-04T23:51:21.393Z,8.07
2023-03-04T23:53:49.764Z,8.30
2023-03-04T23:56:18.736Z,8.03
2023-03-04T23:58:47.126Z,8.27
